KFXY/FXY METAR and TAF weather

Enter ICAO airport designator
Station Type Date Time Source
KFXY METAR 2018/12/13 22:15 UTC NOAA

KFXY 132215Z AUTO 33009KT 4SM BR OVC002 00/00 A3008 RMK AO2


Station Type Date Time Source
KFXY Decoded METAR 2018/12/13 22:15 UTC NOAA

Station name not available
Dec 13, 2018 - 05:15 PM EST / 2018.12.13 2215 UTC
Wind: from the NNW (330 degrees) at 10 MPH (9 KT):0
Visibility: 4 mile(s):0
Sky conditions: overcast
Weather: mist
Temperature: 32 F (0 C)
Windchill: 23 F (-5 C):1
Dew Point: 32 F (0 C)
Relative Humidity: 100%
Pressure (altimeter): 30.08 in. Hg (1018 hPa)
ob: KFXY 132215Z AUTO 33009KT 4SM BR OVC002 00/00 A3008 RMK AO2
cycle: 22

Station Type Date Time Source
KFXY TAF UTC NOAA

Error!


Example: see airport list